WAMM Airport Information

Runway Information
Runway 18 Length 8693 ft width 148 ft
Elevation 270 ft Threshold 0 ft Heading 182
Runway 36 Length 8693 ft Width 148 ft
Elevation 264 ft Threshold 0 ft Heading 2
Airport Frequencies
Type APP Name MANADO APP Frequency 119 MHZ
Type ATIS Name ATIS Frequency 126.4 MHZ
Type INFO Name MANADO INF Frequency 891.8 MHZ
Type TWR Name RATULANGI Frequency 118.1 MHZ
Airport Navaids
Type NDB Name Manado Frequency 255 KHZ
Type VOR-DME Name Manado Frequency 114200 KHZ
Type VOR-DME Name Manado Frequency 114800 KHZ
Type NDB Name Manado Frequency 290 KHZ
Airport Weather Information & NOTAM
ADDS - METARS form results

(2217 UTC 24 January 2022)
Data provider http://aviationweather.gov/metar/data/
 
METAR text: WAMM 242200Z 30003KT 7000 -RA SCT018 24/24 Q1009 TEMPO TL0000 -RA
Conditions at: WAMM (MENADO/SAM RATUL, ID) observed 2200 UTC 24 January 2022
Temperature: 24.0°C (75°F)
Dewpoint: 24.0°C (75°F) [RH = 100%]
Pressure (altimeter): 29.79 inches Hg (1009.0 mb)
Winds: from the WNW (300 degrees) at 3 MPH (3 knots; 1.5 m/s)
Visibility: 4 miles ( 7 km)
Ceiling: at least 12,000 feet AGL
Clouds: scattered clouds at 1800 feet AGL
Weather: -RA  (light rain)

METAR text: WAMM 242130Z VRB02KT 9000 SCT020 24/24 Q1008 NOSIG
Conditions at: WAMM (MENADO/SAM RATUL, ID) observed 2130 UTC 24 January 2022
Temperature: 24.0°C (75°F)
Dewpoint: 24.0°C (75°F) [RH = 100%]
Pressure (altimeter): 29.76 inches Hg (1008.0 mb)
Winds: variable direction winds at 2 MPH (2 knots; 1.0 m/s)
Visibility: 6 miles ( 9 km)
Ceiling: at least 12,000 feet AGL
Clouds: scattered clouds at 2000 feet AGL
Weather: no significant weather observed at this time

Forecast for: WAMM (MENADO/SAM RATUL, ID)
Text: TAF WAMM 241700Z 2418/2524 VRB03KT 9000 SCT018
Forecast period: 1800 UTC 24 January 2022 to 0100 UTC 25 January 2022
Forecast type: FROM: standard forecast or significant change
Winds: variable direction winds at 3 MPH (3 knots; 1.5 m/s)
Visibility: 6 miles (9 km)
Ceiling: at least 12,000 feet AGL
Clouds: scattered clouds at 1800 feet AGL
Weather: no significant weather forecast for this period
Text: BECMG 2501/2502 27009KT
Forecast period: 0100 UTC 25 January 2022 to 0000 UTC 26 January 2022
Forecast type: BECOMING: Conditions expected to become as follows by 0200 UTC 25 January 2022
Winds: from the W (270 degrees) at 10 MPH (9 knots; 4.6 m/s)
Visibility: 6 miles (9 km)
Ceiling: at least 12,000 feet AGL
Clouds: scattered clouds at 1800 feet AGL
Weather: no significant weather forecast for this period